Time;durP1;ratioP1;P1;durP2;ratioP2;P2;SDS_P1;SDS_P2;PMS_P1;PMS_P2;Temp;Humidity;BMP_temperature;BMP_pressure;BME280_temperature;BME280_humidity;BME280_pressure;Samples;Min_cycle;Max_cycle;Signal;HPM_P1;HPM_P2
2022/06/19 00:01:05;;;;;;;;;;;13.00;99.90;;;;;;5035006;28;20264;-73
2022/06/19 00:03:34;;;;;;;;;;;13.00;99.90;;;;;;5025419;28;20308;-74
2022/06/19 00:06:01;;;;;;;;;;;13.00;99.90;;;;;;5015112;28;19910;-74
2022/06/19 00:08:28;;;;;;;;;;;13.00;99.90;;;;;;5015226;28;19910;-74
2022/06/19 00:10:55;;;;;;;;;;;13.00;99.90;;;;;;5015145;28;19917;-74
2022/06/19 00:13:22;;;;;;;;;;;13.00;99.90;;;;;;5014926;28;19965;-74
2022/06/19 00:15:49;;;;;;;;;;;13.00;99.90;;;;;;5014277;28;19963;-74
2022/06/19 00:18:16;;;;;;;;;;;13.10;99.90;;;;;;5015145;28;19913;-75
2022/06/19 00:20:42;;;;;;;;;;;13.10;99.90;;;;;;5014235;28;19916;-75
2022/06/19 00:23:09;;;;;;;;;;;13.10;99.90;;;;;;5014663;28;20461;-75
2022/06/19 00:25:37;;;;;;;;;;;13.10;99.90;;;;;;5014761;28;19917;-74
2022/06/19 00:28:04;;;;;;;;;;;13.20;99.90;;;;;;5014647;28;20044;-75
2022/06/19 00:30:31;;;;;;;;;;;13.20;99.90;;;;;;5014256;28;20424;-74
2022/06/19 00:32:58;;;;;;;;;;;13.30;99.90;;;;;;5021030;28;19925;-73
2022/06/19 00:35:28;;;;;;;;;;;13.30;99.90;;;;;;5034372;28;19917;-76
2022/06/19 00:37:55;;;;;;;;;;;13.40;99.90;;;;;;5034299;28;19971;-75
2022/06/19 00:40:23;;;;;;;;;;;13.60;99.90;;;;;;5032231;28;19987;-75
2022/06/19 00:42:50;;;;;;;;;;;13.60;99.90;;;;;;5032714;28;19909;-74
2022/06/19 00:45:37;;;;;;;;;;;13.70;99.90;;;;;;5033882;28;19917;-75
2022/06/19 00:48:12;;;;;;;;;;;13.70;99.90;;;;;;5033783;28;19910;-75
2022/06/19 00:50:40;;;;;;;;;;;13.80;99.90;;;;;;5034078;28;19909;-75
2022/06/19 00:53:09;;;;;;;;;;;13.70;99.90;;;;;;5033651;28;19921;-72
2022/06/19 00:55:40;;;;;;;;;;;13.70;99.90;;;;;;5033807;28;19920;-74
2022/06/19 00:58:18;;;;;;;;;;;13.70;99.90;;;;;;5033961;28;19915;-76
2022/06/19 01:00:50;;;;;;;;;;;13.80;99.90;;;;;;5033656;28;19913;-75
2022/06/19 01:03:32;;;;;;;;;;;13.90;99.90;;;;;;5033802;28;19909;-74
2022/06/19 01:05:59;;;;;;;;;;;14.00;99.90;;;;;;5033615;28;20319;-76
2022/06/19 01:08:26;;;;;;;;;;;14.20;99.90;;;;;;5032825;28;19948;-75
2022/06/19 01:10:53;;;;;;;;;;;14.30;99.90;;;;;;5033217;28;19916;-75
2022/06/19 01:13:22;;;;;;;;;;;14.50;99.90;;;;;;5032955;28;19921;-76
2022/06/19 01:15:50;;;;;;;;;;;14.60;99.90;;;;;;5033324;28;20368;-76
2022/06/19 01:18:17;;;;;;;;;;;14.70;99.90;;;;;;5032861;28;19921;-77
2022/06/19 01:20:44;;;;;;;;;;;14.90;99.90;;;;;;5033280;28;19910;-76
2022/06/19 01:23:21;;;;;;;;;;;15.00;99.90;;;;;;5032495;28;19916;-78
2022/06/19 01:25:50;;;;;;;;;;;15.10;99.90;;;;;;5033211;28;20328;-74
2022/06/19 01:28:45;;;;;;;;;;;15.20;99.90;;;;;;5032752;28;19913;-77
2022/06/19 01:31:16;;;;;;;;;;;15.20;99.90;;;;;;5033237;28;19916;-77
2022/06/19 01:33:43;;;;;;;;;;;15.30;99.90;;;;;;5032615;28;19917;-74
2022/06/19 01:36:12;;;;;;;;;;;15.30;99.90;;;;;;5033193;28;19909;-75
2022/06/19 01:38:40;;;;;;;;;;;15.40;99.90;;;;;;5033129;28;19955;-75
2022/06/19 01:41:10;;;;;;;;;;;15.40;99.90;;;;;;5032949;28;20001;-75
2022/06/19 01:43:37;;;;;;;;;;;15.40;99.90;;;;;;5032272;28;20358;-74
2022/06/19 01:46:04;;;;;;;;;;;15.30;99.90;;;;;;5033212;28;19909;-75
2022/06/19 01:48:32;;;;;;;;;;;15.40;99.90;;;;;;5032932;28;20000;-73
2022/06/19 01:51:01;;;;;;;;;;;15.40;99.90;;;;;;5032958;28;20007;-76
2022/06/19 01:53:50;;;;;;;;;;;15.40;99.90;;;;;;5032690;28;19921;-74
2022/06/19 01:56:22;;;;;;;;;;;15.40;99.90;;;;;;5027531;28;20225;-74
2022/06/19 01:58:51;;;;;;;;;;;15.50;99.90;;;;;;5032344;28;19936;-76
2022/06/19 02:01:17;;;;;;;;;;;15.50;99.90;;;;;;5032812;28;19964;-74
2022/06/19 02:03:49;;;;;;;;;;;15.60;99.90;;;;;;5032733;28;19944;-73
2022/06/19 02:06:18;;;;;;;;;;;15.80;99.90;;;;;;5032909;28;19980;-73
2022/06/19 02:08:45;;;;;;;;;;;15.90;99.90;;;;;;5032891;28;19932;-75
2022/06/19 02:11:13;;;;;;;;;;;16.00;99.90;;;;;;5014987;28;19909;-73
2022/06/19 02:13:40;;;;;;;;;;;16.10;99.90;;;;;;5032008;28;19921;-75
2022/06/19 02:16:09;;;;;;;;;;;16.20;99.90;;;;;;5032683;28;19956;-74
2022/06/19 02:18:37;;;;;;;;;;;16.20;99.90;;;;;;5032890;28;19948;-76
2022/06/19 02:21:08;;;;;;;;;;;16.30;99.90;;;;;;5032672;28;19909;-76
2022/06/19 02:23:36;;;;;;;;;;;16.30;99.90;;;;;;5032600;28;19963;-75
2022/06/19 02:26:09;;;;;;;;;;;16.50;99.90;;;;;;5032895;28;20422;-76
2022/06/19 02:28:37;;;;;;;;;;;16.40;99.90;;;;;;5032316;28;19996;-77
2022/06/19 02:31:06;;;;;;;;;;;16.40;99.90;;;;;;5032776;28;20371;-75
2022/06/19 02:33:35;;;;;;;;;;;16.40;99.90;;;;;;5032346;28;19917;-77
2022/06/19 02:36:02;;;;;;;;;;;16.40;99.90;;;;;;5014991;28;20376;-78
2022/06/19 02:38:29;;;;;;;;;;;16.30;99.90;;;;;;5032639;28;20313;-78
2022/06/19 02:41:15;;;;;;;;;;;16.30;99.90;;;;;;5014774;28;19913;-78
2022/06/19 02:43:41;;;;;;;;;;;16.30;99.90;;;;;;5032009;28;19916;-76
2022/06/19 02:46:08;;;;;;;;;;;16.40;99.90;;;;;;5036059;28;19909;-77
2022/06/19 02:48:35;;;;;;;;;;;16.50;99.90;;;;;;5036419;28;20379;-77
2022/06/19 02:51:03;;;;;;;;;;;16.60;99.90;;;;;;5036325;28;20043;-77
2022/06/19 02:53:30;;;;;;;;;;;16.60;99.90;;;;;;5035830;28;19928;-75
2022/06/19 02:55:58;;;;;;;;;;;16.50;99.90;;;;;;5036060;28;20018;-77
2022/06/19 02:58:24;;;;;;;;;;;16.50;99.90;;;;;;5035631;28;19909;-76
2022/06/19 03:00:51;;;;;;;;;;;16.60;99.90;;;;;;5036141;28;20356;-75
2022/06/19 03:03:27;;;;;;;;;;;16.50;99.90;;;;;;5036175;28;20012;-76
2022/06/19 03:05:54;;;;;;;;;;;16.60;99.90;;;;;;5035811;28;19909;-75
2022/06/19 03:08:20;;;;;;;;;;;16.50;99.90;;;;;;5036062;28;19917;-76
2022/06/19 03:10:47;;;;;;;;;;;16.50;99.90;;;;;;5035859;28;19921;-76
2022/06/19 03:13:17;;;;;;;;;;;16.50;99.90;;;;;;5035262;28;19917;-75
2022/06/19 03:15:44;;;;;;;;;;;16.50;99.90;;;;;;5035837;28;19917;-76
2022/06/19 03:18:11;;;;;;;;;;;16.60;99.90;;;;;;5036055;28;19916;-76
2022/06/19 03:20:37;;;;;;;;;;;16.60;99.90;;;;;;5035835;28;20406;-74
2022/06/19 03:23:04;;;;;;;;;;;16.50;99.90;;;;;;5035766;28;20009;-76
2022/06/19 03:25:31;;;;;;;;;;;16.40;99.90;;;;;;5035297;28;19947;-77
2022/06/19 03:27:59;;;;;;;;;;;16.30;99.90;;;;;;5035023;28;20276;-75
2022/06/19 03:30:28;;;;;;;;;;;16.20;99.90;;;;;;5035490;28;19955;-78
2022/06/19 03:32:55;;;;;;;;;;;16.10;99.90;;;;;;5018250;28;20128;-74
2022/06/19 03:35:22;;;;;;;;;;;16.10;99.90;;;;;;5002338;28;20318;-75
2022/06/19 03:37:48;;;;;;;;;;;16.20;99.90;;;;;;5014823;28;20527;-75
2022/06/19 03:40:15;;;;;;;;;;;16.20;99.90;;;;;;5014892;28;19914;-76
2022/06/19 03:42:42;;;;;;;;;;;16.40;99.90;;;;;;5014865;28;19963;-77
2022/06/19 03:45:09;;;;;;;;;;;16.40;99.90;;;;;;5015152;28;19918;-77
2022/06/19 03:47:35;;;;;;;;;;;16.50;99.90;;;;;;5013782;28;20423;-76
2022/06/19 03:50:03;;;;;;;;;;;16.50;99.90;;;;;;5014598;28;19996;-77
2022/06/19 03:52:30;;;;;;;;;;;16.50;99.90;;;;;;5016973;28;19924;-76
2022/06/19 03:54:57;;;;;;;;;;;16.50;99.90;;;;;;5032964;28;19909;-76
2022/06/19 03:57:23;;;;;;;;;;;16.50;99.90;;;;;;5033279;28;19909;-74
2022/06/19 03:59:50;;;;;;;;;;;16.50;99.90;;;;;;5032814;28;19921;-74
2022/06/19 04:02:18;;;;;;;;;;;16.50;99.90;;;;;;5032937;28;19975;-74
2022/06/19 04:04:45;;;;;;;;;;;16.50;99.90;;;;;;5032965;28;20353;-76
2022/06/19 04:07:13;;;;;;;;;;;16.50;99.90;;;;;;5032957;28;19909;-77
2022/06/19 04:09:39;;;;;;;;;;;16.50;99.90;;;;;;5032982;28;19948;-76
2022/06/19 04:12:06;;;;;;;;;;;16.50;99.90;;;;;;5034503;28;19970;-74
2022/06/19 04:14:33;;;;;;;;;;;16.50;99.90;;;;;;5034743;28;19964;-73
2022/06/19 04:16:59;;;;;;;;;;;16.40;99.90;;;;;;5033375;28;19963;-75
2022/06/19 04:19:27;;;;;;;;;;;16.40;99.90;;;;;;5034567;28;19909;-73
2022/06/19 04:21:54;;;;;;;;;;;16.40;99.90;;;;;;5034436;28;19989;-74
2022/06/19 04:24:21;;;;;;;;;;;16.40;99.90;;;;;;5034466;28;19952;-76
2022/06/19 04:26:48;;;;;;;;;;;16.50;99.90;;;;;;5033310;28;19909;-75
2022/06/19 04:29:16;;;;;;;;;;;16.40;99.90;;;;;;5034481;28;20379;-74
2022/06/19 04:31:43;;;;;;;;;;;16.40;99.90;;;;;;5033732;28;20360;-74
2022/06/19 04:34:10;;;;;;;;;;;16.40;99.90;;;;;;5033248;28;19917;-74
2022/06/19 04:36:37;;;;;;;;;;;16.50;99.90;;;;;;5034439;28;19909;-75
2022/06/19 04:39:04;;;;;;;;;;;16.40;99.90;;;;;;5033695;28;19917;-74
2022/06/19 04:41:36;;;;;;;;;;;16.40;99.90;;;;;;5033862;28;19909;-75
2022/06/19 04:44:05;;;;;;;;;;;16.40;99.90;;;;;;5034034;28;19909;-73
2022/06/19 04:46:31;;;;;;;;;;;16.40;99.90;;;;;;5033939;28;19914;-74
2022/06/19 04:48:58;;;;;;;;;;;16.40;99.90;;;;;;5034043;28;20015;-73
2022/06/19 04:51:25;;;;;;;;;;;16.40;99.90;;;;;;5033930;28;19936;-76
2022/06/19 04:53:53;;;;;;;;;;;16.30;99.90;;;;;;5048477;28;20015;-75
2022/06/19 04:56:20;;;;;;;;;;;16.20;99.90;;;;;;5035606;28;19932;-72
2022/06/19 04:58:47;;;;;;;;;;;16.20;99.90;;;;;;5053600;28;20366;-74
2022/06/19 05:01:40;;;;;;;;;;;16.20;99.90;;;;;;5053771;28;19951;-73
2022/06/19 05:04:09;;;;;;;;;;;16.20;99.90;;;;;;5050787;28;19962;-73
2022/06/19 05:06:36;;;;;;;;;;;16.20;99.90;;;;;;5053321;28;19913;-73
2022/06/19 05:09:03;;;;;;;;;;;16.10;99.90;;;;;;5053336;28;20010;-73
2022/06/19 05:11:34;;;;;;;;;;;16.10;99.90;;;;;;5053044;28;19909;-75
2022/06/19 05:14:01;;;;;;;;;;;16.00;99.90;;;;;;5053588;28;19924;-73
2022/06/19 05:16:28;;;;;;;;;;;16.00;99.90;;;;;;5053460;28;19909;-75
2022/06/19 05:18:55;;;;;;;;;;;16.00;99.90;;;;;;5053415;28;19908;-75
2022/06/19 05:21:23;;;;;;;;;;;16.00;99.90;;;;;;5053364;28;20030;-73
2022/06/19 05:23:51;;;;;;;;;;;16.00;99.90;;;;;;5053146;28;19913;-72
2022/06/19 05:26:20;;;;;;;;;;;16.00;99.90;;;;;;5053356;28;19909;-74
2022/06/19 05:28:48;;;;;;;;;;;16.00;99.90;;;;;;5053427;28;19909;-74
2022/06/19 05:31:15;;;;;;;;;;;16.00;99.90;;;;;;5053395;28;19916;-73
2022/06/19 05:33:42;;;;;;;;;;;16.00;99.90;;;;;;5053084;28;19917;-75
2022/06/19 05:36:08;;;;;;;;;;;16.10;99.90;;;;;;5053246;28;19908;-76
2022/06/19 05:38:35;;;;;;;;;;;16.10;99.90;;;;;;5053183;28;20367;-76
2022/06/19 05:41:02;;;;;;;;;;;16.10;99.90;;;;;;5053244;28;19935;-75
2022/06/19 05:43:30;;;;;;;;;;;16.10;99.90;;;;;;5053199;28;19909;-77
2022/06/19 05:45:58;;;;;;;;;;;16.10;99.90;;;;;;5053226;28;20333;-76
2022/06/19 05:48:25;;;;;;;;;;;16.10;99.90;;;;;;5053043;28;20248;-77
2022/06/19 05:51:06;;;;;;;;;;;16.00;99.90;;;;;;5053008;28;19916;-77
2022/06/19 05:53:36;;;;;;;;;;;16.00;99.90;;;;;;5052734;28;19924;-76
2022/06/19 05:56:03;;;;;;;;;;;15.90;99.90;;;;;;5053017;28;19936;-75
2022/06/19 05:58:30;;;;;;;;;;;15.90;99.90;;;;;;5052976;28;20298;-76
2022/06/19 06:00:57;;;;;;;;;;;15.90;99.90;;;;;;5052931;28;19913;-77
2022/06/19 06:03:24;;;;;;;;;;;15.90;99.90;;;;;;5053022;28;20325;-79
2022/06/19 06:05:51;;;;;;;;;;;15.90;99.90;;;;;;5052733;28;19963;-77
2022/06/19 06:08:18;;;;;;;;;;;15.90;99.90;;;;;;5052783;28;20356;-78
2022/06/19 06:10:45;;;;;;;;;;;15.90;99.90;;;;;;5052598;28;19908;-78
2022/06/19 06:13:13;;;;;;;;;;;15.80;99.90;;;;;;5052872;28;20322;-75
2022/06/19 06:15:40;;;;;;;;;;;15.90;99.90;;;;;;5052883;28;19908;-76
2022/06/19 06:18:06;;;;;;;;;;;15.80;99.90;;;;;;5052916;28;19909;-77
2022/06/19 06:20:33;;;;;;;;;;;15.80;99.90;;;;;;5055488;28;19909;-76
2022/06/19 06:23:00;;;;;;;;;;;15.80;99.90;;;;;;5056836;28;19909;-78
2022/06/19 06:25:27;;;;;;;;;;;15.80;99.90;;;;;;5056713;28;20000;-77
2022/06/19 06:27:53;;;;;;;;;;;15.80;99.90;;;;;;5056609;28;19909;-78
2022/06/19 06:30:20;;;;;;;;;;;15.50;99.90;;;;;;5056713;28;19974;-77
2022/06/19 06:32:47;;;;;;;;;;;15.30;99.90;;;;;;5056687;28;20271;-77
2022/06/19 06:35:13;;;;;;;;;;;15.20;99.90;;;;;;5056596;28;19909;-75
2022/06/19 06:37:40;;;;;;;;;;;15.20;99.90;;;;;;5056458;28;19909;-76
2022/06/19 06:40:08;;;;;;;;;;;15.10;99.90;;;;;;5056425;28;19916;-76
2022/06/19 06:42:35;;;;;;;;;;;15.00;99.90;;;;;;5056523;28;20348;-77
2022/06/19 06:45:02;;;;;;;;;;;15.00;99.90;;;;;;5056619;28;19991;-78
2022/06/19 06:47:29;;;;;;;;;;;15.00;99.90;;;;;;5056471;28;19991;-75
2022/06/19 06:49:56;;;;;;;;;;;14.90;99.90;;;;;;5056410;28;19919;-76
2022/06/19 06:52:23;;;;;;;;;;;14.90;99.90;;;;;;5056202;28;19943;-75
2022/06/19 06:54:49;;;;;;;;;;;14.80;99.90;;;;;;5056405;28;19909;-76
2022/06/19 06:57:16;;;;;;;;;;;14.80;99.90;;;;;;5056364;28;19913;-76
2022/06/19 06:59:43;;;;;;;;;;;14.80;99.90;;;;;;5055982;28;20314;-76
2022/06/19 07:02:10;;;;;;;;;;;14.60;99.90;;;;;;5056240;28;19909;-76
2022/06/19 07:04:37;;;;;;;;;;;14.20;99.90;;;;;;5038089;28;19909;-76
2022/06/19 07:07:04;;;;;;;;;;;13.90;99.90;;;;;;5055854;28;19988;-76
2022/06/19 07:09:30;;;;;;;;;;;13.70;99.90;;;;;;5055769;28;19908;-76
2022/06/19 07:11:57;;;;;;;;;;;13.60;99.90;;;;;;5055835;28;19909;-76
2022/06/19 07:14:24;;;;;;;;;;;13.50;99.90;;;;;;5055918;28;19956;-77
2022/06/19 07:16:50;;;;;;;;;;;13.40;99.90;;;;;;5038045;28;20365;-78
2022/06/19 07:19:17;;;;;;;;;;;13.40;99.90;;;;;;5055929;28;19912;-78
2022/06/19 07:21:44;;;;;;;;;;;13.30;99.90;;;;;;5055699;28;19909;-78
2022/06/19 07:24:10;;;;;;;;;;;13.30;99.90;;;;;;5055602;28;19916;-78
2022/06/19 07:26:37;;;;;;;;;;;13.30;99.90;;;;;;5055704;28;19909;-77
2022/06/19 07:29:04;;;;;;;;;;;13.20;99.90;;;;;;5055830;28;20315;-78
2022/06/19 07:31:31;;;;;;;;;;;13.20;99.90;;;;;;5054988;28;20252;-77
2022/06/19 07:33:58;;;;;;;;;;;13.20;99.90;;;;;;5055504;28;19924;-77
2022/06/19 07:36:25;;;;;;;;;;;13.10;99.90;;;;;;5055544;28;20378;-77
2022/06/19 07:38:52;;;;;;;;;;;12.90;99.90;;;;;;5055454;28;20378;-77
2022/06/19 07:41:19;;;;;;;;;;;12.90;99.90;;;;;;5055580;28;19909;-77
2022/06/19 07:43:46;;;;;;;;;;;12.90;99.90;;;;;;5055160;28;20256;-77
2022/06/19 07:46:13;;;;;;;;;;;12.90;99.90;;;;;;5055380;28;19909;-77
2022/06/19 07:51:29;;;;;;;;;;;12.80;99.90;;;;;;5053351;28;19989;-77
2022/06/19 07:53:55;;;;;;;;;;;12.80;99.90;;;;;;5052975;28;20413;-77
2022/06/19 07:56:22;;;;;;;;;;;12.80;99.90;;;;;;5053037;28;20027;-77
2022/06/19 07:58:49;;;;;;;;;;;12.80;99.90;;;;;;5053131;28;19963;-77
2022/06/19 08:01:15;;;;;;;;;;;12.90;99.90;;;;;;5052538;28;19959;-76
2022/06/19 08:03:42;;;;;;;;;;;12.90;99.90;;;;;;5052764;28;19909;-76
2022/06/19 08:06:09;;;;;;;;;;;12.90;99.90;;;;;;5052819;28;19952;-77
2022/06/19 08:08:36;;;;;;;;;;;12.90;99.90;;;;;;5052504;28;20348;-77
2022/06/19 08:11:04;;;;;;;;;;;12.90;99.90;;;;;;5052642;28;19996;-76
2022/06/19 08:13:32;;;;;;;;;;;12.90;99.90;;;;;;5052521;28;19917;-76
2022/06/19 08:16:02;;;;;;;;;;;12.90;99.90;;;;;;5052269;28;19912;-76
2022/06/19 08:18:29;;;;;;;;;;;13.00;99.90;;;;;;5052612;28;20304;-76
2022/06/19 08:20:56;;;;;;;;;;;13.10;99.90;;;;;;5052509;28;20103;-76
2022/06/19 08:23:23;;;;;;;;;;;13.10;99.90;;;;;;5034530;28;19909;-76
2022/06/19 08:25:49;;;;;;;;;;;13.20;99.90;;;;;;5052417;28;19909;-76
2022/06/19 08:28:20;;;;;;;;;;;13.10;99.90;;;;;;5052114;28;20368;-77
2022/06/19 08:30:47;;;;;;;;;;;13.10;99.90;;;;;;5047562;28;20004;-76
2022/06/19 08:33:13;;;;;;;;;;;13.10;99.90;;;;;;5029271;28;19917;-76
2022/06/19 08:35:45;;;;;;;;;;;13.10;99.90;;;;;;5031972;28;19917;-77
2022/06/19 08:38:23;;;;;;;;;;;13.10;99.90;;;;;;5032259;28;19916;-77
2022/06/19 08:41:15;;;;;;;;;;;13.00;99.90;;;;;;5032271;28;20141;-77
2022/06/19 08:44:02;;;;;;;;;;;13.00;99.90;;;;;;5030851;28;19982;-76
2022/06/19 08:46:38;;;;;;;;;;;13.00;99.90;;;;;;5031598;28;19971;-77
2022/06/19 08:49:11;;;;;;;;;;;13.00;99.90;;;;;;5032074;28;19909;-77
2022/06/19 08:51:44;;;;;;;;;;;13.00;99.90;;;;;;5031866;28;19909;-76
2022/06/19 08:54:19;;;;;;;;;;;12.90;99.90;;;;;;5031722;28;19925;-75
2022/06/19 08:56:49;;;;;;;;;;;12.80;99.90;;;;;;5031566;28;19913;-76
2022/06/19 08:59:16;;;;;;;;;;;12.90;99.90;;;;;;5031824;28;19920;-75
2022/06/19 09:01:46;;;;;;;;;;;12.80;99.90;;;;;;5031134;28;19913;-76
2022/06/19 09:07:06;;;;;;;;;;;12.80;99.90;;;;;;5039290;28;19936;-75
2022/06/19 09:09:39;;;;;;;;;;;12.80;99.90;;;;;;5052873;28;20333;-75
2022/06/19 09:12:06;;;;;;;;;;;12.80;99.90;;;;;;5053730;28;19920;-75
2022/06/19 09:14:46;;;;;;;;;;;12.90;99.90;;;;;;5053589;28;19971;-75
2022/06/19 09:17:50;;;;;;;;;;;12.90;99.90;;;;;;5053719;28;20015;-75
2022/06/19 09:20:26;;;;;;;;;;;12.90;99.90;;;;;;5051346;28;19943;-76
2022/06/19 09:23:02;;;;;;;;;;;12.90;99.90;;;;;;5051540;28;19909;-75
2022/06/19 09:25:41;;;;;;;;;;;12.90;99.90;;;;;;5052618;28;20279;-76
2022/06/19 09:28:19;;;;;;;;;;;12.90;99.90;;;;;;5053501;28;19916;-77
2022/06/19 09:31:04;;;;;;;;;;;12.90;99.90;;;;;;5053062;28;19924;-76
2022/06/19 09:33:36;;;;;;;;;;;12.90;99.90;;;;;;5052890;28;19948;-76
2022/06/19 09:36:06;;;;;;;;;;;12.80;99.90;;;;;;5053361;28;19909;-76
2022/06/19 09:38:59;;;;;;;;;;;12.80;99.90;;;;;;5067425;28;20388;-76
2022/06/19 09:41:34;;;;;;;;;;;12.80;99.90;;;;;;5053429;28;19913;-75
2022/06/19 09:44:04;;;;;;;;;;;12.80;99.90;;;;;;5053396;28;19912;-76
2022/06/19 09:46:51;;;;;;;;;;;12.80;99.90;;;;;;5052708;28;19956;-76
2022/06/19 09:49:21;;;;;;;;;;;12.80;99.90;;;;;;5053125;28;19932;-76
2022/06/19 09:51:48;;;;;;;;;;;12.80;99.90;;;;;;5053030;28;19909;-76
2022/06/19 09:54:20;;;;;;;;;;;12.80;99.90;;;;;;5052622;28;19927;-76
2022/06/19 09:57:04;;;;;;;;;;;12.80;99.90;;;;;;5053215;28;20382;-76
2022/06/19 09:59:38;;;;;;;;;;;12.70;99.90;;;;;;5052468;28;20291;-75
2022/06/19 10:02:16;;;;;;;;;;;12.70;99.90;;;;;;5053042;28;20325;-75
2022/06/19 10:05:08;;;;;;;;;;;12.70;99.90;;;;;;5053020;28;19955;-77
2022/06/19 10:07:57;;;;;;;;;;;12.70;99.90;;;;;;5052621;28;19920;-75
2022/06/19 10:10:29;;;;;;;;;;;12.60;99.90;;;;;;5051723;28;20334;-75
2022/06/19 10:12:58;;;;;;;;;;;12.70;99.90;;;;;;5052880;28;19920;-75
2022/06/19 10:15:32;;;;;;;;;;;12.60;99.90;;;;;;5052431;28;19917;-75
2022/06/19 10:18:11;;;;;;;;;;;12.60;99.90;;;;;;5052919;28;19916;-76
2022/06/19 10:20:56;;;;;;;;;;;12.70;99.90;;;;;;5052848;28;20347;-75
2022/06/19 10:23:35;;;;;;;;;;;12.70;99.90;;;;;;5052559;28;19924;-76
2022/06/19 10:26:05;;;;;;;;;;;12.60;99.90;;;;;;5052882;28;19909;-75
2022/06/19 10:28:35;;;;;;;;;;;12.70;99.90;;;;;;5052835;28;20350;-75
2022/06/19 10:31:04;;;;;;;;;;;12.70;99.90;;;;;;5052397;28;20360;-75
2022/06/19 10:33:37;;;;;;;;;;;12.70;99.90;;;;;;5052143;28;20390;-76
2022/06/19 10:36:22;;;;;;;;;;;12.60;99.90;;;;;;5052732;28;20289;-76
2022/06/19 10:38:49;;;;;;;;;;;12.70;99.90;;;;;;5052478;28;20358;-76
2022/06/19 10:44:06;;;;;;;;;;;12.60;99.90;;;;;;5052818;28;19915;-76
2022/06/19 10:46:33;;;;;;;;;;;12.70;99.90;;;;;;5052666;28;19962;-75
2022/06/19 10:49:03;;;;;;;;;;;12.70;99.90;;;;;;5052421;28;19916;-75
2022/06/19 10:51:29;;;;;;;;;;;12.70;99.90;;;;;;5052638;28;19915;-75
2022/06/19 10:54:05;;;;;;;;;;;12.60;99.90;;;;;;5052159;28;20314;-75
2022/06/19 10:56:50;;;;;;;;;;;12.60;99.90;;;;;;5068065;28;19932;-75
2022/06/19 10:59:17;;;;;;;;;;;12.60;99.90;;;;;;5052641;28;19984;-75
2022/06/19 11:04:51;;;;;;;;;;;12.70;99.90;;;;;;5053047;28;19952;-75
2022/06/19 11:07:18;;;;;;;;;;;12.70;99.90;;;;;;5071459;28;19909;-75
2022/06/19 11:09:54;;;;;;;;;;;12.70;99.90;;;;;;5055692;28;19915;-75
2022/06/19 11:12:36;;;;;;;;;;;12.70;99.90;;;;;;5055987;28;19908;-75
2022/06/19 11:15:19;;;;;;;;;;;12.70;99.90;;;;;;5056046;28;20287;-75
2022/06/19 11:17:45;;;;;;;;;;;12.70;99.90;;;;;;5055869;28;19912;-75
2022/06/19 11:20:24;;;;;;;;;;;12.70;99.90;;;;;;5056000;28;20362;-75
2022/06/19 11:22:58;;;;;;;;;;;12.70;99.90;;;;;;5055679;28;19909;-75
2022/06/19 11:25:40;;;;;;;;;;;12.60;99.90;;;;;;5055845;28;19909;-75
2022/06/19 11:28:14;;;;;;;;;;;12.70;99.90;;;;;;5055773;28;19909;-75
2022/06/19 11:30:52;;;;;;;;;;;12.70;99.90;;;;;;5054383;28;20261;-75
2022/06/19 11:33:21;;;;;;;;;;;12.70;99.90;;;;;;5055554;28;19923;-76
2022/06/19 11:35:56;;;;;;;;;;;12.70;99.90;;;;;;5055664;28;19992;-76
2022/06/19 11:38:43;;;;;;;;;;;12.80;99.90;;;;;;5056282;28;19951;-76
2022/06/19 11:41:24;;;;;;;;;;;12.80;99.90;;;;;;5056539;28;19909;-76
2022/06/19 11:44:06;;;;;;;;;;;12.80;99.90;;;;;;5056071;28;19909;-76
2022/06/19 11:46:42;;;;;;;;;;;12.80;99.90;;;;;;5056087;28;19908;-77
2022/06/19 11:49:27;;;;;;;;;;;12.80;99.90;;;;;;5064801;28;19967;-76
2022/06/19 11:51:55;;;;;;;;;;;12.80;99.90;;;;;;5065570;28;19909;-76
2022/06/19 11:54:25;;;;;;;;;;;12.80;99.90;;;;;;5060931;28;19921;-77
2022/06/19 11:56:52;;;;;;;;;;;12.80;99.90;;;;;;5055472;28;19916;-77
2022/06/19 11:59:36;;;;;;;;;;;12.70;99.90;;;;;;5055207;28;20417;-76
2022/06/19 12:02:04;;;;;;;;;;;12.70;99.90;;;;;;5055017;28;19915;-76
2022/06/19 12:04:31;;;;;;;;;;;12.70;99.90;;;;;;5055133;28;20018;-76
2022/06/19 12:07:13;;;;;;;;;;;12.70;99.90;;;;;;5055122;28;19940;-76
2022/06/19 12:09:42;;;;;;;;;;;12.70;99.90;;;;;;5054784;28;20268;-76
2022/06/19 12:12:09;;;;;;;;;;;12.60;99.90;;;;;;5054996;28;20366;-76
2022/06/19 12:14:51;;;;;;;;;;;12.60;99.90;;;;;;5054690;28;19920;-76
2022/06/19 12:17:18;;;;;;;;;;;12.60;99.90;;;;;;5054866;28;19915;-76
2022/06/19 12:19:53;;;;;;;;;;;12.60;99.90;;;;;;5054586;28;19916;-76
2022/06/19 12:22:23;;;;;;;;;;;12.60;99.90;;;;;;5054664;28;19909;-76
2022/06/19 12:25:03;;;;;;;;;;;12.50;99.90;;;;;;5054692;28;19908;-76
2022/06/19 12:27:32;;;;;;;;;;;12.60;99.90;;;;;;5054768;28;19959;-76
2022/06/19 12:30:02;;;;;;;;;;;12.60;99.90;;;;;;5054581;28;20454;-76
2022/06/19 12:32:32;;;;;;;;;;;12.60;99.90;;;;;;5054539;28;19915;-76
2022/06/19 12:35:01;;;;;;;;;;;12.60;99.90;;;;;;5054342;28;19920;-76
2022/06/19 12:37:30;;;;;;;;;;;12.60;99.90;;;;;;5054295;28;19908;-76
2022/06/19 12:39:57;;;;;;;;;;;12.60;99.90;;;;;;5054304;28;19913;-76
2022/06/19 12:42:37;;;;;;;;;;;12.60;99.90;;;;;;5054274;28;20268;-76
2022/06/19 12:45:12;;;;;;;;;;;12.60;99.90;;;;;;5054270;28;19916;-76
2022/06/19 12:47:56;;;;;;;;;;;12.60;99.90;;;;;;5054116;28;19909;-76
2022/06/19 12:50:36;;;;;;;;;;;12.60;99.90;;;;;;5054209;28;19908;-76
2022/06/19 12:53:06;;;;;;;;;;;12.50;99.90;;;;;;5053823;28;19928;-76
2022/06/19 12:55:47;;;;;;;;;;;12.60;99.90;;;;;;5053957;28;19909;-76
2022/06/19 12:58:13;;;;;;;;;;;12.50;99.90;;;;;;5054156;28;19916;-76
2022/06/19 13:00:52;;;;;;;;;;;12.50;99.90;;;;;;5053908;28;19916;-76
2022/06/19 13:03:19;;;;;;;;;;;12.50;99.90;;;;;;5054014;28;19915;-75
2022/06/19 13:06:01;;;;;;;;;;;12.50;99.90;;;;;;5053734;28;19975;-76
2022/06/19 13:08:28;;;;;;;;;;;12.50;99.90;;;;;;5053724;28;19920;-75
2022/06/19 13:10:55;;;;;;;;;;;12.50;99.90;;;;;;5053986;28;19931;-76
2022/06/19 13:13:40;;;;;;;;;;;12.60;99.90;;;;;;5053790;28;20359;-76
2022/06/19 13:16:18;;;;;;;;;;;12.60;99.90;;;;;;5052434;28;19916;-76
2022/06/19 13:18:54;;;;;;;;;;;12.60;99.90;;;;;;5053891;28;19959;-76
2022/06/19 13:21:36;;;;;;;;;;;12.70;99.90;;;;;;5069196;28;19909;-76
2022/06/19 13:24:12;;;;;;;;;;;12.80;99.90;;;;;;5053535;28;19912;-76
2022/06/19 13:27:10;;;;;;;;;;;12.80;99.90;;;;;;5053645;28;19948;-76
2022/06/19 13:29:45;;;;;;;;;;;12.90;99.90;;;;;;5052826;28;19915;-76
2022/06/19 13:32:11;;;;;;;;;;;13.00;99.90;;;;;;5053581;28;20015;-76
2022/06/19 13:34:54;;;;;;;;;;;13.00;99.90;;;;;;5053409;28;19917;-76
2022/06/19 13:37:40;;;;;;;;;;;13.10;99.90;;;;;;5053190;28;19977;-77
2022/06/19 13:40:07;;;;;;;;;;;13.10;99.90;;;;;;5052041;28;19913;-76
2022/06/19 13:42:42;;;;;;;;;;;13.10;99.90;;;;;;5053408;28;19962;-76
2022/06/19 13:45:21;;;;;;;;;;;13.10;99.90;;;;;;5053366;28;19962;-76
2022/06/19 13:47:58;;;;;;;;;;;13.20;99.90;;;;;;5053007;28;19909;-76
2022/06/19 13:50:29;;;;;;;;;;;13.20;99.90;;;;;;5053372;28;20302;-76
2022/06/19 13:53:03;;;;;;;;;;;13.20;99.90;;;;;;5052927;28;19975;-76
2022/06/19 13:55:42;;;;;;;;;;;13.10;99.90;;;;;;5053069;28;20000;-76
2022/06/19 13:58:27;;;;;;;;;;;13.00;99.90;;;;;;5053105;28;19909;-77
2022/06/19 14:00:56;;;;;;;;;;;12.90;99.90;;;;;;5053169;28;19916;-76
2022/06/19 14:03:23;;;;;;;;;;;13.00;99.90;;;;;;5053126;28;19909;-77
2022/06/19 14:05:51;;;;;;;;;;;13.00;99.90;;;;;;5052900;28;20470;-76
2022/06/19 14:08:29;;;;;;;;;;;12.90;99.90;;;;;;5052927;28;19942;-77
2022/06/19 14:10:58;;;;;;;;;;;12.90;99.90;;;;;;5053188;28;20248;-76
2022/06/19 14:13:25;;;;;;;;;;;12.80;99.90;;;;;;5052934;28;19917;-75
2022/06/19 14:16:14;;;;;;;;;;;12.80;99.90;;;;;;5052940;28;19963;-76
2022/06/19 14:18:50;;;;;;;;;;;12.60;99.90;;;;;;5053117;28;19992;-75
2022/06/19 14:21:20;;;;;;;;;;;12.60;99.90;;;;;;5052942;28;19913;-75
2022/06/19 14:24:03;;;;;;;;;;;12.60;99.90;;;;;;5052771;28;19909;-75
2022/06/19 14:26:45;;;;;;;;;;;12.50;99.90;;;;;;5052930;28;20264;-75
2022/06/19 14:29:32;;;;;;;;;;;12.60;99.90;;;;;;5052738;28;19913;-76
2022/06/19 14:31:59;;;;;;;;;;;12.50;99.90;;;;;;5052894;28;20265;-76
2022/06/19 14:34:47;;;;;;;;;;;12.50;99.90;;;;;;5052654;28;19921;-75
2022/06/19 14:37:28;;;;;;;;;;;12.50;99.90;;;;;;5052548;28;20371;-75
2022/06/19 14:40:03;;;;;;;;;;;12.40;99.90;;;;;;5052926;28;19913;-76
2022/06/19 14:42:29;;;;;;;;;;;12.40;99.90;;;;;;5056704;28;19916;-76
2022/06/19 14:45:00;;;;;;;;;;;12.50;99.90;;;;;;5056615;28;20291;-76
2022/06/19 14:47:39;;;;;;;;;;;12.50;99.90;;;;;;5056670;28;19913;-76
2022/06/19 14:50:15;;;;;;;;;;;12.50;99.90;;;;;;5056505;28;19912;-76